sensor_id;sensor_type;location;lat;lon;timestamp;P1;durP1;ratioP1;P2;durP2;ratioP2
40993;SDS011;26722;43.212;27.932;2023-07-29T00:00:31;5.18;;;2.60;;
40993;SDS011;26722;43.212;27.932;2023-07-29T00:02:57;5.55;;;2.58;;
40993;SDS011;26722;43.212;27.932;2023-07-29T00:05:23;5.25;;;2.40;;
40993;SDS011;26722;43.212;27.932;2023-07-29T00:07:48;6.68;;;2.25;;
40993;SDS011;26722;43.212;27.932;2023-07-29T00:10:13;4.60;;;2.28;;
40993;SDS011;26722;43.212;27.932;2023-07-29T00:12:39;5.55;;;2.20;;
40993;SDS011;26722;43.212;27.932;2023-07-29T00:15:05;4.75;;;2.10;;
40993;SDS011;26722;43.212;27.932;2023-07-29T00:17:30;4.30;;;2.50;;
40993;SDS011;26722;43.212;27.932;2023-07-29T00:19:56;4.47;;;2.03;;
40993;SDS011;26722;43.212;27.932;2023-07-29T00:22:22;5.22;;;2.42;;
40993;SDS011;26722;43.212;27.932;2023-07-29T00:24:51;3.30;;;1.98;;
40993;SDS011;26722;43.212;27.932;2023-07-29T00:27:19;4.65;;;2.20;;
40993;SDS011;26722;43.212;27.932;2023-07-29T00:29:45;5.18;;;2.05;;
40993;SDS011;26722;43.212;27.932;2023-07-29T00:32:10;5.40;;;2.45;;
40993;SDS011;26722;43.212;27.932;2023-07-29T00:34:36;3.42;;;2.13;;
40993;SDS011;26722;43.212;27.932;2023-07-29T00:37:01;4.95;;;2.28;;
40993;SDS011;26722;43.212;27.932;2023-07-29T00:39:26;4.95;;;2.38;;
40993;SDS011;26722;43.212;27.932;2023-07-29T00:41:52;4.22;;;2.03;;
40993;SDS011;26722;43.212;27.932;2023-07-29T00:44:17;6.22;;;2.17;;
40993;SDS011;26722;43.212;27.932;2023-07-29T00:46:43;7.85;;;2.40;;
40993;SDS011;26722;43.212;27.932;2023-07-29T00:49:11;6.53;;;2.30;;
40993;SDS011;26722;43.212;27.932;2023-07-29T00:51:36;4.93;;;2.22;;
40993;SDS011;26722;43.212;27.932;2023-07-29T00:54:02;5.60;;;2.00;;
40993;SDS011;26722;43.212;27.932;2023-07-29T00:56:27;5.03;;;2.53;;
40993;SDS011;26722;43.212;27.932;2023-07-29T00:58:53;7.45;;;2.53;;
40993;SDS011;26722;43.212;27.932;2023-07-29T01:01:24;4.60;;;2.35;;
40993;SDS011;26722;43.212;27.932;2023-07-29T01:03:49;3.40;;;2.45;;
40993;SDS011;26722;43.212;27.932;2023-07-29T01:06:23;5.47;;;2.70;;
40993;SDS011;26722;43.212;27.932;2023-07-29T01:08:56;4.55;;;2.75;;
40993;SDS011;26722;43.212;27.932;2023-07-29T01:14:34;7.38;;;2.97;;
40993;SDS011;26722;43.212;27.932;2023-07-29T01:17:07;5.65;;;2.72;;
40993;SDS011;26722;43.212;27.932;2023-07-29T01:22:18;5.68;;;3.00;;
40993;SDS011;26722;43.212;27.932;2023-07-29T01:24:46;10.85;;;3.08;;
40993;SDS011;26722;43.212;27.932;2023-07-29T01:27:11;6.13;;;3.22;;
40993;SDS011;26722;43.212;27.932;2023-07-29T01:29:37;8.88;;;3.17;;
40993;SDS011;26722;43.212;27.932;2023-07-29T01:32:05;8.40;;;3.45;;
40993;SDS011;26722;43.212;27.932;2023-07-29T01:34:39;8.50;;;3.40;;
40993;SDS011;26722;43.212;27.932;2023-07-29T01:37:10;7.35;;;3.78;;
40993;SDS011;26722;43.212;27.932;2023-07-29T01:39:40;9.48;;;3.42;;
40993;SDS011;26722;43.212;27.932;2023-07-29T01:42:07;8.95;;;3.78;;
40993;SDS011;26722;43.212;27.932;2023-07-29T01:44:32;12.55;;;4.28;;
40993;SDS011;26722;43.212;27.932;2023-07-29T01:46:59;8.57;;;4.68;;
40993;SDS011;26722;43.212;27.932;2023-07-29T01:49:25;7.72;;;4.32;;
40993;SDS011;26722;43.212;27.932;2023-07-29T01:51:50;10.40;;;4.57;;
40993;SDS011;26722;43.212;27.932;2023-07-29T01:54:15;10.43;;;4.50;;
40993;SDS011;26722;43.212;27.932;2023-07-29T01:56:41;11.82;;;4.65;;
40993;SDS011;26722;43.212;27.932;2023-07-29T01:59:06;14.15;;;4.65;;
40993;SDS011;26722;43.212;27.932;2023-07-29T02:01:32;13.77;;;4.95;;
40993;SDS011;26722;43.212;27.932;2023-07-29T02:03:57;15.73;;;5.75;;
40993;SDS011;26722;43.212;27.932;2023-07-29T02:06:22;12.90;;;5.90;;
40993;SDS011;26722;43.212;27.932;2023-07-29T02:08:48;10.13;;;5.13;;
40993;SDS011;26722;43.212;27.932;2023-07-29T02:11:13;16.15;;;5.53;;
40993;SDS011;26722;43.212;27.932;2023-07-29T02:13:39;11.68;;;5.20;;
40993;SDS011;26722;43.212;27.932;2023-07-29T02:16:04;13.82;;;5.32;;
40993;SDS011;26722;43.212;27.932;2023-07-29T02:18:30;14.20;;;5.45;;
40993;SDS011;26722;43.212;27.932;2023-07-29T02:20:55;10.70;;;5.80;;
40993;SDS011;26722;43.212;27.932;2023-07-29T02:23:21;14.93;;;5.55;;
40993;SDS011;26722;43.212;27.932;2023-07-29T02:25:46;11.52;;;5.53;;
40993;SDS011;26722;43.212;27.932;2023-07-29T02:28:12;15.38;;;6.07;;
40993;SDS011;26722;43.212;27.932;2023-07-29T02:30:40;14.38;;;6.22;;
40993;SDS011;26722;43.212;27.932;2023-07-29T02:33:06;18.63;;;6.47;;
40993;SDS011;26722;43.212;27.932;2023-07-29T02:35:32;12.77;;;6.00;;
40993;SDS011;26722;43.212;27.932;2023-07-29T02:37:57;12.90;;;5.93;;
40993;SDS011;26722;43.212;27.932;2023-07-29T02:40:22;15.20;;;5.32;;
40993;SDS011;26722;43.212;27.932;2023-07-29T02:42:50;12.57;;;5.15;;
40993;SDS011;26722;43.212;27.932;2023-07-29T02:45:15;14.35;;;6.65;;
40993;SDS011;26722;43.212;27.932;2023-07-29T02:47:40;8.95;;;5.38;;
40993;SDS011;26722;43.212;27.932;2023-07-29T02:50:06;13.55;;;5.20;;
40993;SDS011;26722;43.212;27.932;2023-07-29T02:52:32;11.68;;;5.47;;
40993;SDS011;26722;43.212;27.932;2023-07-29T02:54:57;16.20;;;5.57;;
40993;SDS011;26722;43.212;27.932;2023-07-29T02:57:23;13.07;;;5.75;;
40993;SDS011;26722;43.212;27.932;2023-07-29T02:59:48;12.85;;;6.03;;
40993;SDS011;26722;43.212;27.932;2023-07-29T03:02:14;13.98;;;5.65;;
40993;SDS011;26722;43.212;27.932;2023-07-29T03:04:41;11.07;;;5.85;;
40993;SDS011;26722;43.212;27.932;2023-07-29T03:07:06;10.52;;;5.60;;
40993;SDS011;26722;43.212;27.932;2023-07-29T03:09:32;13.52;;;5.53;;
40993;SDS011;26722;43.212;27.932;2023-07-29T03:11:58;13.30;;;5.97;;
40993;SDS011;26722;43.212;27.932;2023-07-29T03:14:24;15.30;;;6.07;;
40993;SDS011;26722;43.212;27.932;2023-07-29T03:16:49;18.08;;;6.20;;
40993;SDS011;26722;43.212;27.932;2023-07-29T03:19:15;13.38;;;5.93;;
40993;SDS011;26722;43.212;27.932;2023-07-29T03:21:40;15.95;;;5.70;;
40993;SDS011;26722;43.212;27.932;2023-07-29T03:24:06;23.35;;;5.78;;
40993;SDS011;26722;43.212;27.932;2023-07-29T03:26:32;16.30;;;6.05;;
40993;SDS011;26722;43.212;27.932;2023-07-29T03:28:57;18.05;;;5.55;;
40993;SDS011;26722;43.212;27.932;2023-07-29T03:31:23;17.60;;;5.30;;
40993;SDS011;26722;43.212;27.932;2023-07-29T03:33:48;8.43;;;4.88;;
40993;SDS011;26722;43.212;27.932;2023-07-29T03:36:14;10.20;;;4.53;;
40993;SDS011;26722;43.212;27.932;2023-07-29T03:38:40;14.10;;;4.75;;
40993;SDS011;26722;43.212;27.932;2023-07-29T03:41:07;20.80;;;5.10;;
40993;SDS011;26722;43.212;27.932;2023-07-29T03:43:33;10.35;;;5.05;;
40993;SDS011;26722;43.212;27.932;2023-07-29T03:45:59;11.48;;;3.90;;
40993;SDS011;26722;43.212;27.932;2023-07-29T03:48:25;14.68;;;4.47;;
40993;SDS011;26722;43.212;27.932;2023-07-29T03:50:50;14.07;;;5.28;;
40993;SDS011;26722;43.212;27.932;2023-07-29T03:53:16;14.70;;;4.55;;
40993;SDS011;26722;43.212;27.932;2023-07-29T03:55:42;10.40;;;4.45;;
40993;SDS011;26722;43.212;27.932;2023-07-29T03:58:07;14.10;;;4.68;;
40993;SDS011;26722;43.212;27.932;2023-07-29T04:00:33;16.13;;;4.68;;
40993;SDS011;26722;43.212;27.932;2023-07-29T04:02:58;17.40;;;4.70;;
40993;SDS011;26722;43.212;27.932;2023-07-29T04:05:24;13.00;;;4.40;;
40993;SDS011;26722;43.212;27.932;2023-07-29T04:07:49;17.08;;;4.90;;
40993;SDS011;26722;43.212;27.932;2023-07-29T04:10:15;13.98;;;4.75;;
40993;SDS011;26722;43.212;27.932;2023-07-29T04:12:40;16.95;;;4.30;;
40993;SDS011;26722;43.212;27.932;2023-07-29T04:15:06;15.48;;;4.15;;
40993;SDS011;26722;43.212;27.932;2023-07-29T04:17:32;11.73;;;4.00;;
40993;SDS011;26722;43.212;27.932;2023-07-29T04:19:57;10.65;;;4.93;;
40993;SDS011;26722;43.212;27.932;2023-07-29T04:22:23;13.93;;;3.90;;
40993;SDS011;26722;43.212;27.932;2023-07-29T04:24:48;8.10;;;4.50;;
40993;SDS011;26722;43.212;27.932;2023-07-29T04:27:13;15.90;;;3.83;;
40993;SDS011;26722;43.212;27.932;2023-07-29T04:29:39;13.57;;;3.92;;
40993;SDS011;26722;43.212;27.932;2023-07-29T04:32:05;10.07;;;3.42;;
40993;SDS011;26722;43.212;27.932;2023-07-29T04:34:31;10.85;;;3.58;;
40993;SDS011;26722;43.212;27.932;2023-07-29T04:36:56;6.80;;;3.72;;
40993;SDS011;26722;43.212;27.932;2023-07-29T04:39:22;8.43;;;3.20;;
40993;SDS011;26722;43.212;27.932;2023-07-29T04:41:48;13.90;;;3.75;;
40993;SDS011;26722;43.212;27.932;2023-07-29T04:44:13;12.10;;;3.55;;
40993;SDS011;26722;43.212;27.932;2023-07-29T04:46:38;7.20;;;3.60;;
40993;SDS011;26722;43.212;27.932;2023-07-29T04:49:04;11.23;;;3.88;;
40993;SDS011;26722;43.212;27.932;2023-07-29T04:51:30;12.50;;;4.78;;
40993;SDS011;26722;43.212;27.932;2023-07-29T04:53:56;14.38;;;7.13;;
40993;SDS011;26722;43.212;27.932;2023-07-29T04:56:22;24.02;;;10.95;;
40993;SDS011;26722;43.212;27.932;2023-07-29T04:58:48;23.13;;;12.48;;
40993;SDS011;26722;43.212;27.932;2023-07-29T05:01:13;28.77;;;13.02;;
40993;SDS011;26722;43.212;27.932;2023-07-29T05:03:39;33.80;;;13.68;;
40993;SDS011;26722;43.212;27.932;2023-07-29T05:06:05;33.08;;;16.80;;
40993;SDS011;26722;43.212;27.932;2023-07-29T05:08:30;39.65;;;19.67;;
40993;SDS011;26722;43.212;27.932;2023-07-29T05:10:56;41.25;;;21.90;;
40993;SDS011;26722;43.212;27.932;2023-07-29T05:13:22;34.90;;;22.98;;
40993;SDS011;26722;43.212;27.932;2023-07-29T05:15:48;40.92;;;23.73;;
40993;SDS011;26722;43.212;27.932;2023-07-29T05:18:14;42.33;;;24.77;;
40993;SDS011;26722;43.212;27.932;2023-07-29T05:20:40;40.78;;;25.25;;
40993;SDS011;26722;43.212;27.932;2023-07-29T05:23:05;39.53;;;24.75;;
40993;SDS011;26722;43.212;27.932;2023-07-29T05:25:31;53.25;;;30.92;;
40993;SDS011;26722;43.212;27.932;2023-07-29T05:27:57;57.08;;;35.50;;
40993;SDS011;26722;43.212;27.932;2023-07-29T05:30:22;58.28;;;34.65;;
40993;SDS011;26722;43.212;27.932;2023-07-29T05:32:48;65.57;;;30.88;;
40993;SDS011;26722;43.212;27.932;2023-07-29T05:35:13;51.72;;;29.15;;
40993;SDS011;26722;43.212;27.932;2023-07-29T05:37:40;50.60;;;26.92;;
40993;SDS011;26722;43.212;27.932;2023-07-29T05:40:06;47.33;;;22.30;;
40993;SDS011;26722;43.212;27.932;2023-07-29T05:42:32;38.30;;;20.83;;
40993;SDS011;26722;43.212;27.932;2023-07-29T05:44:58;56.33;;;19.55;;
40993;SDS011;26722;43.212;27.932;2023-07-29T05:47:23;29.95;;;14.80;;
40993;SDS011;26722;43.212;27.932;2023-07-29T05:49:49;27.60;;;14.93;;
40993;SDS011;26722;43.212;27.932;2023-07-29T05:52:14;27.27;;;10.23;;
40993;SDS011;26722;43.212;27.932;2023-07-29T05:54:40;21.45;;;10.48;;
40993;SDS011;26722;43.212;27.932;2023-07-29T05:57:07;22.88;;;11.00;;
40993;SDS011;26722;43.212;27.932;2023-07-29T05:59:34;25.95;;;10.15;;
40993;SDS011;26722;43.212;27.932;2023-07-29T06:01:59;18.75;;;10.07;;
40993;SDS011;26722;43.212;27.932;2023-07-29T06:04:25;22.17;;;8.65;;
40993;SDS011;26722;43.212;27.932;2023-07-29T06:06:50;20.85;;;9.82;;
40993;SDS011;26722;43.212;27.932;2023-07-29T06:09:15;31.52;;;10.45;;
40993;SDS011;26722;43.212;27.932;2023-07-29T06:11:41;24.65;;;11.40;;
40993;SDS011;26722;43.212;27.932;2023-07-29T06:14:06;17.98;;;10.32;;
40993;SDS011;26722;43.212;27.932;2023-07-29T06:16:32;22.75;;;10.10;;
40993;SDS011;26722;43.212;27.932;2023-07-29T06:18:57;26.70;;;11.40;;
40993;SDS011;26722;43.212;27.932;2023-07-29T06:21:23;27.35;;;11.30;;
40993;SDS011;26722;43.212;27.932;2023-07-29T06:23:48;20.10;;;9.75;;
40993;SDS011;26722;43.212;27.932;2023-07-29T06:26:14;27.23;;;10.82;;
40993;SDS011;26722;43.212;27.932;2023-07-29T06:28:39;24.00;;;11.50;;
40993;SDS011;26722;43.212;27.932;2023-07-29T06:31:05;21.60;;;11.57;;
40993;SDS011;26722;43.212;27.932;2023-07-29T06:33:30;24.02;;;10.65;;
40993;SDS011;26722;43.212;27.932;2023-07-29T06:35:55;24.25;;;11.77;;
40993;SDS011;26722;43.212;27.932;2023-07-29T06:38:21;22.52;;;12.15;;
40993;SDS011;26722;43.212;27.932;2023-07-29T06:40:50;23.13;;;11.75;;
40993;SDS011;26722;43.212;27.932;2023-07-29T06:43:16;20.52;;;11.02;;
40993;SDS011;26722;43.212;27.932;2023-07-29T06:45:41;18.42;;;8.95;;
40993;SDS011;26722;43.212;27.932;2023-07-29T06:48:07;24.17;;;9.23;;
40993;SDS011;26722;43.212;27.932;2023-07-29T06:50:33;14.65;;;8.32;;
40993;SDS011;26722;43.212;27.932;2023-07-29T06:52:58;21.30;;;6.97;;
40993;SDS011;26722;43.212;27.932;2023-07-29T06:55:24;17.98;;;6.90;;
40993;SDS011;26722;43.212;27.932;2023-07-29T06:57:49;15.73;;;6.50;;
40993;SDS011;26722;43.212;27.932;2023-07-29T07:00:15;17.85;;;6.55;;
40993;SDS011;26722;43.212;27.932;2023-07-29T07:02:40;14.15;;;5.95;;
40993;SDS011;26722;43.212;27.932;2023-07-29T07:05:06;15.32;;;6.10;;
40993;SDS011;26722;43.212;27.932;2023-07-29T07:07:32;18.05;;;6.65;;
40993;SDS011;26722;43.212;27.932;2023-07-29T07:09:57;11.05;;;5.22;;
40993;SDS011;26722;43.212;27.932;2023-07-29T07:12:23;10.45;;;5.75;;
40993;SDS011;26722;43.212;27.932;2023-07-29T07:14:49;12.85;;;5.07;;
40993;SDS011;26722;43.212;27.932;2023-07-29T07:17:14;14.98;;;5.78;;
40993;SDS011;26722;43.212;27.932;2023-07-29T07:19:39;15.73;;;5.90;;
40993;SDS011;26722;43.212;27.932;2023-07-29T07:22:05;19.50;;;5.18;;
40993;SDS011;26722;43.212;27.932;2023-07-29T07:24:30;14.00;;;4.90;;
40993;SDS011;26722;43.212;27.932;2023-07-29T07:26:56;16.80;;;4.55;;
40993;SDS011;26722;43.212;27.932;2023-07-29T07:29:22;14.55;;;4.88;;
40993;SDS011;26722;43.212;27.932;2023-07-29T07:31:51;9.85;;;5.07;;
40993;SDS011;26722;43.212;27.932;2023-07-29T07:34:19;8.88;;;4.38;;
40993;SDS011;26722;43.212;27.932;2023-07-29T07:36:47;12.93;;;4.10;;
40993;SDS011;26722;43.212;27.932;2023-07-29T07:39:13;6.20;;;4.28;;
40993;SDS011;26722;43.212;27.932;2023-07-29T07:41:38;10.57;;;5.28;;
40993;SDS011;26722;43.212;27.932;2023-07-29T07:44:05;9.68;;;4.35;;
40993;SDS011;26722;43.212;27.932;2023-07-29T07:46:30;10.65;;;4.75;;
40993;SDS011;26722;43.212;27.932;2023-07-29T07:48:56;10.73;;;4.30;;
40993;SDS011;26722;43.212;27.932;2023-07-29T07:51:21;15.68;;;4.88;;
40993;SDS011;26722;43.212;27.932;2023-07-29T07:53:47;9.35;;;4.82;;
40993;SDS011;26722;43.212;27.932;2023-07-29T07:56:13;12.13;;;5.10;;
40993;SDS011;26722;43.212;27.932;2023-07-29T07:58:40;11.38;;;4.95;;
40993;SDS011;26722;43.212;27.932;2023-07-29T08:01:06;11.73;;;5.72;;
40993;SDS011;26722;43.212;27.932;2023-07-29T08:03:32;12.07;;;5.55;;
40993;SDS011;26722;43.212;27.932;2023-07-29T08:05:58;15.18;;;6.53;;
40993;SDS011;26722;43.212;27.932;2023-07-29T08:08:27;14.20;;;5.78;;
40993;SDS011;26722;43.212;27.932;2023-07-29T08:10:54;18.45;;;5.80;;
40993;SDS011;26722;43.212;27.932;2023-07-29T08:13:21;13.85;;;5.30;;
40993;SDS011;26722;43.212;27.932;2023-07-29T08:15:51;9.40;;;3.50;;
40993;SDS011;26722;43.212;27.932;2023-07-29T08:18:17;10.48;;;3.15;;
40993;SDS011;26722;43.212;27.932;2023-07-29T08:20:56;7.60;;;2.78;;
40993;SDS011;26722;43.212;27.932;2023-07-29T08:23:24;5.55;;;2.50;;
40993;SDS011;26722;43.212;27.932;2023-07-29T08:25:51;11.20;;;3.08;;
40993;SDS011;26722;43.212;27.932;2023-07-29T08:28:18;5.68;;;2.83;;
40993;SDS011;26722;43.212;27.932;2023-07-29T08:30:43;7.72;;;3.17;;
40993;SDS011;26722;43.212;27.932;2023-07-29T08:33:09;7.50;;;3.10;;
40993;SDS011;26722;43.212;27.932;2023-07-29T08:35:34;7.18;;;3.10;;
40993;SDS011;26722;43.212;27.932;2023-07-29T08:38:00;6.38;;;2.80;;
40993;SDS011;26722;43.212;27.932;2023-07-29T08:40:27;8.10;;;2.90;;
40993;SDS011;26722;43.212;27.932;2023-07-29T08:42:54;4.10;;;2.70;;
40993;SDS011;26722;43.212;27.932;2023-07-29T08:45:23;5.05;;;3.10;;
40993;SDS011;26722;43.212;27.932;2023-07-29T08:47:49;6.20;;;3.88;;
40993;SDS011;26722;43.212;27.932;2023-07-29T08:50:19;8.95;;;3.63;;
40993;SDS011;26722;43.212;27.932;2023-07-29T08:52:45;7.60;;;3.22;;
40993;SDS011;26722;43.212;27.932;2023-07-29T08:55:12;9.70;;;3.40;;
40993;SDS011;26722;43.212;27.932;2023-07-29T08:57:37;4.60;;;3.03;;
40993;SDS011;26722;43.212;27.932;2023-07-29T09:00:03;7.07;;;3.25;;
40993;SDS011;26722;43.212;27.932;2023-07-29T09:02:29;6.90;;;3.10;;
40993;SDS011;26722;43.212;27.932;2023-07-29T09:04:54;4.68;;;3.10;;
40993;SDS011;26722;43.212;27.932;2023-07-29T09:07:20;9.85;;;3.00;;
40993;SDS011;26722;43.212;27.932;2023-07-29T09:09:46;7.75;;;3.17;;
40993;SDS011;26722;43.212;27.932;2023-07-29T09:12:11;4.43;;;2.88;;
40993;SDS011;26722;43.212;27.932;2023-07-29T09:14:37;4.57;;;2.78;;
40993;SDS011;26722;43.212;27.932;2023-07-29T09:17:02;3.63;;;2.28;;
40993;SDS011;26722;43.212;27.932;2023-07-29T09:19:32;4.90;;;2.40;;
40993;SDS011;26722;43.212;27.932;2023-07-29T09:21:58;7.28;;;2.50;;
40993;SDS011;26722;43.212;27.932;2023-07-29T09:24:24;3.65;;;2.03;;
40993;SDS011;26722;43.212;27.932;2023-07-29T09:26:50;4.38;;;2.30;;
40993;SDS011;26722;43.212;27.932;2023-07-29T09:29:21;8.27;;;2.08;;
40993;SDS011;26722;43.212;27.932;2023-07-29T09:31:48;5.28;;;2.15;;
40993;SDS011;26722;43.212;27.932;2023-07-29T09:34:13;5.85;;;2.50;;
40993;SDS011;26722;43.212;27.932;2023-07-29T09:36:41;6.20;;;2.15;;
40993;SDS011;26722;43.212;27.932;2023-07-29T09:39:10;5.88;;;2.40;;
40993;SDS011;26722;43.212;27.932;2023-07-29T09:41:37;5.20;;;1.80;;
40993;SDS011;26722;43.212;27.932;2023-07-29T09:44:03;3.38;;;2.15;;
40993;SDS011;26722;43.212;27.932;2023-07-29T09:46:32;3.15;;;1.77;;
40993;SDS011;26722;43.212;27.932;2023-07-29T09:49:02;5.32;;;2.15;;
40993;SDS011;26722;43.212;27.932;2023-07-29T09:51:29;5.88;;;2.05;;
40993;SDS011;26722;43.212;27.932;2023-07-29T09:53:54;5.07;;;1.95;;
40993;SDS011;26722;43.212;27.932;2023-07-29T09:56:24;5.18;;;2.60;;
40993;SDS011;26722;43.212;27.932;2023-07-29T09:58:51;8.07;;;3.28;;
40993;SDS011;26722;43.212;27.932;2023-07-29T10:01:16;8.20;;;2.67;;
40993;SDS011;26722;43.212;27.932;2023-07-29T10:03:43;10.80;;;2.72;;
40993;SDS011;26722;43.212;27.932;2023-07-29T10:06:09;4.35;;;2.15;;
40993;SDS011;26722;43.212;27.932;2023-07-29T10:08:36;10.75;;;2.40;;
40993;SDS011;26722;43.212;27.932;2023-07-29T10:11:07;5.47;;;2.20;;
40993;SDS011;26722;43.212;27.932;2023-07-29T10:13:34;3.75;;;2.20;;
40993;SDS011;26722;43.212;27.932;2023-07-29T10:16:00;31.98;;;6.25;;
40993;SDS011;26722;43.212;27.932;2023-07-29T10:18:31;17.52;;;3.72;;
40993;SDS011;26722;43.212;27.932;2023-07-29T10:20:58;27.73;;;4.60;;
40993;SDS011;26722;43.212;27.932;2023-07-29T10:23:25;5.05;;;2.60;;
40993;SDS011;26722;43.212;27.932;2023-07-29T10:25:55;6.00;;;2.50;;
40993;SDS011;26722;43.212;27.932;2023-07-29T10:28:27;4.07;;;2.00;;
40993;SDS011;26722;43.212;27.932;2023-07-29T10:30:55;8.00;;;2.20;;
40993;SDS011;26722;43.212;27.932;2023-07-29T10:33:21;4.43;;;1.90;;
40993;SDS011;26722;43.212;27.932;2023-07-29T10:35:47;6.28;;;2.33;;
40993;SDS011;26722;43.212;27.932;2023-07-29T10:38:13;3.95;;;2.15;;
40993;SDS011;26722;43.212;27.932;2023-07-29T10:40:43;2.80;;;2.05;;
40993;SDS011;26722;43.212;27.932;2023-07-29T10:43:12;6.72;;;2.70;;
40993;SDS011;26722;43.212;27.932;2023-07-29T10:45:43;4.60;;;2.13;;
40993;SDS011;26722;43.212;27.932;2023-07-29T10:48:12;4.93;;;2.67;;
40993;SDS011;26722;43.212;27.932;2023-07-29T10:53:58;3.63;;;2.72;;
40993;SDS011;26722;43.212;27.932;2023-07-29T10:56:28;4.60;;;2.70;;
40993;SDS011;26722;43.212;27.932;2023-07-29T10:58:58;7.32;;;3.58;;
40993;SDS011;26722;43.212;27.932;2023-07-29T11:01:37;7.10;;;3.22;;
40993;SDS011;26722;43.212;27.932;2023-07-29T11:17:35;3.58;;;2.50;;
40993;SDS011;26722;43.212;27.932;2023-07-29T11:20:01;3.83;;;2.20;;
40993;SDS011;26722;43.212;27.932;2023-07-29T11:22:28;7.22;;;3.00;;
40993;SDS011;26722;43.212;27.932;2023-07-29T11:24:54;6.13;;;2.80;;
40993;SDS011;26722;43.212;27.932;2023-07-29T11:27:20;4.45;;;2.40;;
40993;SDS011;26722;43.212;27.932;2023-07-29T11:29:46;4.32;;;2.90;;
40993;SDS011;26722;43.212;27.932;2023-07-29T11:32:11;4.25;;;3.17;;
40993;SDS011;26722;43.212;27.932;2023-07-29T11:34:37;10.68;;;3.85;;
40993;SDS011;26722;43.212;27.932;2023-07-29T11:37:05;8.75;;;3.70;;
40993;SDS011;26722;43.212;27.932;2023-07-29T11:39:32;6.15;;;3.20;;
40993;SDS011;26722;43.212;27.932;2023-07-29T11:41:58;19.83;;;3.38;;
40993;SDS011;26722;43.212;27.932;2023-07-29T11:44:24;15.32;;;4.00;;
40993;SDS011;26722;43.212;27.932;2023-07-29T11:46:50;12.45;;;3.70;;
40993;SDS011;26722;43.212;27.932;2023-07-29T11:49:15;13.05;;;4.50;;
40993;SDS011;26722;43.212;27.932;2023-07-29T11:51:41;10.02;;;3.30;;
40993;SDS011;26722;43.212;27.932;2023-07-29T11:54:08;8.52;;;3.22;;
40993;SDS011;26722;43.212;27.932;2023-07-29T11:56:34;43.78;;;6.35;;
40993;SDS011;26722;43.212;27.932;2023-07-29T11:59:01;40.97;;;5.65;;
40993;SDS011;26722;43.212;27.932;2023-07-29T12:01:28;13.43;;;4.18;;
40993;SDS011;26722;43.212;27.932;2023-07-29T12:03:54;9.00;;;2.80;;
40993;SDS011;26722;43.212;27.932;2023-07-29T12:06:21;86.90;;;10.02;;
40993;SDS011;26722;43.212;27.932;2023-07-29T12:08:48;13.07;;;2.92;;
40993;SDS011;26722;43.212;27.932;2023-07-29T12:11:14;7.93;;;2.38;;
40993;SDS011;26722;43.212;27.932;2023-07-29T12:13:41;7.05;;;2.53;;
40993;SDS011;26722;43.212;27.932;2023-07-29T12:16:06;6.18;;;2.63;;
40993;SDS011;26722;43.212;27.932;2023-07-29T12:18:32;7.45;;;2.55;;
40993;SDS011;26722;43.212;27.932;2023-07-29T12:20:58;7.25;;;3.10;;
40993;SDS011;26722;43.212;27.932;2023-07-29T12:23:25;5.32;;;3.15;;
40993;SDS011;26722;43.212;27.932;2023-07-29T12:25:57;7.72;;;3.10;;
40993;SDS011;26722;43.212;27.932;2023-07-29T12:28:24;5.80;;;3.00;;
40993;SDS011;26722;43.212;27.932;2023-07-29T12:30:56;7.65;;;3.05;;
40993;SDS011;26722;43.212;27.932;2023-07-29T12:33:37;5.32;;;2.80;;
40993;SDS011;26722;43.212;27.932;2023-07-29T12:36:07;9.27;;;2.60;;
40993;SDS011;26722;43.212;27.932;2023-07-29T12:38:32;25.42;;;4.38;;
40993;SDS011;26722;43.212;27.932;2023-07-29T12:40:58;4.85;;;2.50;;
40993;SDS011;26722;43.212;27.932;2023-07-29T12:43:24;5.28;;;2.95;;
40993;SDS011;26722;43.212;27.932;2023-07-29T12:45:50;4.18;;;2.47;;
40993;SDS011;26722;43.212;27.932;2023-07-29T12:48:16;3.65;;;2.17;;
40993;SDS011;26722;43.212;27.932;2023-07-29T12:50:42;5.78;;;2.30;;
40993;SDS011;26722;43.212;27.932;2023-07-29T12:53:08;8.98;;;3.22;;
40993;SDS011;26722;43.212;27.932;2023-07-29T12:55:36;9.18;;;2.90;;
40993;SDS011;26722;43.212;27.932;2023-07-29T12:58:02;12.20;;;2.67;;
40993;SDS011;26722;43.212;27.932;2023-07-29T13:00:28;4.55;;;2.40;;
40993;SDS011;26722;43.212;27.932;2023-07-29T13:02:54;6.20;;;2.72;;
40993;SDS011;26722;43.212;27.932;2023-07-29T13:05:19;9.10;;;3.08;;
40993;SDS011;26722;43.212;27.932;2023-07-29T13:07:45;9.98;;;2.83;;
40993;SDS011;26722;43.212;27.932;2023-07-29T13:10:11;12.75;;;2.42;;
40993;SDS011;26722;43.212;27.932;2023-07-29T13:12:36;6.15;;;2.63;;
40993;SDS011;26722;43.212;27.932;2023-07-29T13:15:02;5.93;;;2.40;;
40993;SDS011;26722;43.212;27.932;2023-07-29T13:17:28;6.35;;;2.40;;
40993;SDS011;26722;43.212;27.932;2023-07-29T13:19:53;9.98;;;2.50;;
40993;SDS011;26722;43.212;27.932;2023-07-29T13:22:19;8.02;;;2.30;;
40993;SDS011;26722;43.212;27.932;2023-07-29T13:24:45;7.40;;;3.30;;
40993;SDS011;26722;43.212;27.932;2023-07-29T13:27:11;9.70;;;2.92;;
40993;SDS011;26722;43.212;27.932;2023-07-29T13:29:36;6.82;;;2.38;;
40993;SDS011;26722;43.212;27.932;2023-07-29T13:32:02;6.43;;;2.33;;
40993;SDS011;26722;43.212;27.932;2023-07-29T13:34:27;6.82;;;2.53;;
40993;SDS011;26722;43.212;27.932;2023-07-29T13:36:53;4.97;;;2.20;;
40993;SDS011;26722;43.212;27.932;2023-07-29T13:39:18;7.55;;;2.70;;
40993;SDS011;26722;43.212;27.932;2023-07-29T13:41:44;4.07;;;2.22;;
40993;SDS011;26722;43.212;27.932;2023-07-29T13:44:09;7.85;;;2.20;;
40993;SDS011;26722;43.212;27.932;2023-07-29T13:46:35;9.15;;;2.10;;
40993;SDS011;26722;43.212;27.932;2023-07-29T13:49:00;9.18;;;2.30;;
40993;SDS011;26722;43.212;27.932;2023-07-29T13:51:27;3.83;;;1.88;;
40993;SDS011;26722;43.212;27.932;2023-07-29T13:53:52;7.28;;;2.35;;
40993;SDS011;26722;43.212;27.932;2023-07-29T13:56:17;10.00;;;2.55;;
40993;SDS011;26722;43.212;27.932;2023-07-29T13:58:43;6.63;;;2.17;;
40993;SDS011;26722;43.212;27.932;2023-07-29T14:01:08;6.78;;;2.45;;
40993;SDS011;26722;43.212;27.932;2023-07-29T14:03:34;5.70;;;2.42;;
40993;SDS011;26722;43.212;27.932;2023-07-29T14:05:59;9.20;;;2.30;;
40993;SDS011;26722;43.212;27.932;2023-07-29T14:08:25;3.45;;;1.90;;
40993;SDS011;26722;43.212;27.932;2023-07-29T14:10:50;5.38;;;2.20;;
40993;SDS011;26722;43.212;27.932;2023-07-29T14:13:15;2.67;;;1.60;;
40993;SDS011;26722;43.212;27.932;2023-07-29T14:15:41;7.53;;;2.08;;
40993;SDS011;26722;43.212;27.932;2023-07-29T14:18:06;7.00;;;1.80;;
40993;SDS011;26722;43.212;27.932;2023-07-29T14:20:32;5.32;;;2.00;;
40993;SDS011;26722;43.212;27.932;2023-07-29T14:22:58;5.68;;;2.22;;
40993;SDS011;26722;43.212;27.932;2023-07-29T14:25:23;4.32;;;1.88;;
40993;SDS011;26722;43.212;27.932;2023-07-29T14:27:49;8.07;;;2.42;;
40993;SDS011;26722;43.212;27.932;2023-07-29T14:30:14;6.55;;;2.60;;
40993;SDS011;26722;43.212;27.932;2023-07-29T14:32:40;4.18;;;1.83;;
40993;SDS011;26722;43.212;27.932;2023-07-29T14:35:05;7.15;;;1.90;;
40993;SDS011;26722;43.212;27.932;2023-07-29T14:37:32;6.75;;;2.25;;
40993;SDS011;26722;43.212;27.932;2023-07-29T14:39:58;6.03;;;2.05;;
40993;SDS011;26722;43.212;27.932;2023-07-29T14:42:24;12.18;;;2.40;;